createdAt,value
2022-11-14T00:00:53.181Z,4.78
2022-11-14T00:01:52.946Z,4.85
2022-11-14T00:02:53.103Z,4.83
2022-11-14T00:03:52.943Z,4.85
2022-11-14T00:04:52.942Z,4.96
2022-11-14T00:05:52.937Z,4.97
2022-11-14T00:06:52.962Z,4.85
2022-11-14T00:07:52.921Z,4.96
2022-11-14T00:08:52.914Z,4.86
2022-11-14T00:09:52.888Z,4.94
2022-11-14T00:10:52.942Z,4.94
2022-11-14T00:11:52.928Z,4.96
2022-11-14T00:12:52.882Z,4.98
2022-11-14T00:13:52.870Z,4.98
2022-11-14T00:14:52.870Z,4.96
2022-11-14T00:15:52.879Z,4.96
2022-11-14T00:16:52.915Z,4.91
2022-11-14T00:17:52.859Z,4.88
2022-11-14T00:18:52.937Z,4.85
2022-11-14T00:19:52.850Z,4.91
2022-11-14T00:20:52.856Z,4.75
2022-11-14T00:21:52.855Z,4.69
2022-11-14T00:22:53.139Z,4.67
2022-11-14T00:23:52.830Z,4.61
2022-11-14T00:24:52.818Z,4.57
2022-11-14T00:25:52.792Z,4.57
2022-11-14T00:26:52.800Z,4.57
2022-11-14T00:27:52.938Z,4.54
2022-11-14T00:28:52.799Z,4.67
2022-11-14T00:29:52.807Z,4.59
2022-11-14T00:30:52.799Z,4.60
2022-11-14T00:31:52.832Z,4.60
2022-11-14T00:32:52.780Z,4.69
2022-11-14T00:33:52.889Z,4.71
2022-11-14T00:34:52.865Z,4.63
2022-11-14T00:35:52.778Z,4.56
2022-11-14T00:36:52.761Z,4.49
2022-11-14T00:37:52.755Z,4.46
2022-11-14T00:38:52.775Z,4.48
2022-11-14T00:39:52.724Z,4.42
2022-11-14T00:40:52.747Z,4.45
2022-11-14T00:41:52.750Z,4.45
2022-11-14T00:42:52.729Z,4.48
2022-11-14T00:43:52.714Z,4.49
2022-11-14T00:44:52.813Z,4.60
2022-11-14T00:45:52.699Z,4.57
2022-11-14T00:46:52.703Z,4.75
2022-11-14T00:47:52.703Z,4.71
2022-11-14T00:48:52.697Z,4.79
2022-11-14T00:49:52.784Z,4.74
2022-11-14T00:50:52.678Z,4.86
2022-11-14T00:51:52.677Z,4.86
2022-11-14T00:52:52.675Z,4.60
2022-11-14T00:53:52.648Z,4.56
2022-11-14T00:54:52.658Z,4.67
2022-11-14T00:55:52.672Z,4.63
2022-11-14T00:56:52.647Z,4.71
2022-11-14T00:57:52.639Z,4.66
2022-11-14T00:58:52.655Z,4.82
2022-11-14T00:59:52.674Z,4.74
2022-11-14T01:00:52.826Z,4.86
2022-11-14T01:01:57.574Z,4.71
2022-11-14T01:02:53.613Z,4.71
2022-11-14T01:03:52.616Z,4.69
2022-11-14T01:04:52.618Z,4.72
2022-11-14T01:05:52.601Z,4.74
2022-11-14T01:06:52.716Z,4.71
2022-11-14T01:07:52.602Z,4.57
2022-11-14T01:08:52.654Z,4.57
2022-11-14T01:09:52.578Z,4.35
2022-11-14T01:10:52.587Z,4.24
2022-11-14T01:11:52.686Z,4.20
2022-11-14T01:12:52.553Z,4.18
2022-11-14T01:13:52.571Z,4.09
2022-11-14T01:14:52.544Z,4.23
2022-11-14T01:15:52.550Z,4.26
2022-11-14T01:16:52.547Z,4.05
2022-11-14T01:17:52.581Z,4.03
2022-11-14T01:18:52.591Z,4.03
2022-11-14T01:19:52.542Z,4.02
2022-11-14T01:20:52.601Z,3.96
2022-11-14T01:21:52.530Z,4.05
2022-11-14T01:22:52.706Z,3.92
2022-11-14T01:23:52.520Z,3.87
2022-11-14T01:24:52.513Z,3.72
2022-11-14T01:25:52.484Z,3.91
2022-11-14T01:26:52.482Z,4.03
2022-11-14T01:27:52.487Z,4.08
2022-11-14T01:28:52.521Z,4.20
2022-11-14T01:29:52.503Z,4.21
2022-11-14T01:30:52.472Z,4.27
2022-11-14T01:31:53.462Z,4.21
2022-11-14T01:32:52.472Z,4.23
2022-11-14T01:33:52.505Z,4.34
2022-11-14T01:34:52.463Z,4.10
2022-11-14T01:35:52.492Z,4.12
2022-11-14T01:36:52.480Z,4.21
2022-11-14T01:37:52.474Z,4.21
2022-11-14T01:38:52.524Z,4.24
2022-11-14T01:39:52.442Z,4.27
2022-11-14T01:40:52.432Z,4.27
2022-11-14T01:41:52.420Z,4.24
2022-11-14T01:42:52.419Z,4.31
2022-11-14T01:43:52.421Z,4.39
2022-11-14T01:44:52.583Z,4.34
2022-11-14T01:45:52.401Z,4.21
2022-11-14T01:46:52.412Z,4.16
2022-11-14T01:47:52.412Z,4.12
2022-11-14T01:48:52.408Z,4.00
2022-11-14T01:49:52.379Z,4.02
2022-11-14T01:50:52.504Z,3.98
2022-11-14T01:51:52.364Z,3.92
2022-11-14T01:52:52.389Z,3.84
2022-11-14T01:53:52.355Z,3.82
2022-11-14T01:54:52.451Z,3.99
2022-11-14T01:55:52.472Z,4.02
2022-11-14T01:56:52.370Z,4.00
2022-11-14T01:57:52.331Z,4.03
2022-11-14T01:58:52.324Z,4.10
2022-11-14T01:59:52.334Z,4.21
2022-11-14T02:00:52.323Z,4.21
2022-11-14T02:01:52.399Z,4.05
2022-11-14T02:02:52.352Z,4.02
2022-11-14T02:03:52.323Z,4.10
2022-11-14T02:04:52.305Z,4.23
2022-11-14T02:05:52.279Z,4.23
2022-11-14T02:06:52.468Z,4.26
2022-11-14T02:07:52.301Z,4.24
2022-11-14T02:08:52.289Z,4.20
2022-11-14T02:09:52.274Z,4.20
2022-11-14T02:10:52.367Z,4.24
2022-11-14T02:11:52.325Z,4.42
2022-11-14T02:12:52.318Z,4.21
2022-11-14T02:13:52.253Z,4.20
2022-11-14T02:14:52.256Z,4.09
2022-11-14T02:15:52.240Z,4.23
2022-11-14T02:17:22.260Z,4.18
2022-11-14T02:17:54.259Z,4.18
2022-11-14T02:18:52.247Z,4.20
2022-11-14T02:19:52.219Z,4.08
2022-11-14T02:20:52.223Z,4.03
2022-11-14T02:21:52.218Z,4.12
2022-11-14T02:22:52.242Z,3.90
2022-11-14T02:23:52.249Z,3.88
2022-11-14T02:24:52.213Z,3.94
2022-11-14T02:25:52.186Z,4.10
2022-11-14T02:26:52.289Z,4.02
2022-11-14T02:27:52.212Z,3.82
2022-11-14T02:28:52.211Z,3.81
2022-11-14T02:29:52.179Z,3.82
2022-11-14T02:30:52.169Z,3.92
2022-11-14T02:31:52.171Z,3.99
2022-11-14T02:33:54.160Z,4.21
2022-11-14T02:34:52.176Z,4.03
2022-11-14T02:35:52.159Z,4.13
2022-11-14T02:36:52.145Z,4.03
2022-11-14T02:37:52.149Z,4.13
2022-11-14T02:38:52.180Z,4.09
2022-11-14T02:39:52.127Z,4.21
2022-11-14T02:40:52.124Z,4.00
2022-11-14T02:41:52.135Z,4.03
2022-11-14T02:42:52.237Z,4.12
2022-11-14T02:43:52.156Z,4.05
2022-11-14T02:44:52.099Z,4.00
2022-11-14T02:45:52.091Z,3.88
2022-11-14T02:46:52.162Z,3.76
2022-11-14T02:47:52.114Z,3.72
2022-11-14T02:48:52.075Z,3.81
2022-11-14T02:49:52.115Z,3.81
2022-11-14T02:50:52.078Z,3.78
2022-11-14T02:51:52.076Z,3.90
2022-11-14T02:52:52.056Z,3.88
2022-11-14T02:53:52.088Z,3.94
2022-11-14T02:54:54.615Z,3.96
2022-11-14T02:55:53.037Z,3.88
2022-11-14T02:56:52.044Z,3.96
2022-11-14T02:57:52.027Z,3.88
2022-11-14T02:58:52.120Z,3.85
2022-11-14T02:59:52.018Z,3.78
2022-11-14T03:01:18.712Z,3.88
2022-11-14T03:01:54.050Z,3.91
2022-11-14T03:02:52.012Z,3.88
2022-11-14T03:03:52.011Z,3.94
2022-11-14T03:04:52.001Z,4.00
2022-11-14T03:05:52.024Z,4.03
2022-11-14T03:06:52.064Z,4.05
2022-11-14T03:07:51.991Z,4.16
2022-11-14T03:08:51.992Z,4.12
2022-11-14T03:09:51.989Z,4.17
2022-11-14T03:10:51.968Z,4.05
2022-11-14T03:11:52.103Z,4.16
2022-11-14T03:12:51.991Z,4.10
2022-11-14T03:13:51.972Z,4.26
2022-11-14T03:14:52.044Z,4.17
2022-11-14T03:15:51.951Z,4.21
2022-11-14T03:16:51.961Z,4.26
2022-11-14T03:17:51.927Z,4.27
2022-11-14T03:18:52.935Z,4.18
2022-11-14T03:19:51.934Z,4.35
2022-11-14T03:20:51.923Z,4.27
2022-11-14T03:21:51.929Z,4.24
2022-11-14T03:22:51.938Z,4.09
2022-11-14T03:23:51.915Z,4.10
2022-11-14T03:24:51.897Z,4.00
2022-11-14T03:25:51.877Z,3.80
2022-11-14T03:26:51.882Z,3.92
2022-11-14T03:27:51.903Z,3.92
2022-11-14T03:28:51.883Z,4.03
2022-11-14T03:29:51.868Z,3.98
2022-11-14T03:30:51.968Z,4.05
2022-11-14T03:31:51.864Z,4.05
2022-11-14T03:32:51.853Z,4.05
2022-11-14T03:33:51.883Z,4.20
2022-11-14T03:34:51.829Z,4.21
2022-11-14T03:35:51.843Z,4.06
2022-11-14T03:36:51.823Z,3.96
2022-11-14T03:37:56.183Z,3.96
2022-11-14T03:38:52.834Z,3.85
2022-11-14T03:39:51.820Z,3.92
2022-11-14T03:40:51.874Z,3.76
2022-11-14T03:41:51.825Z,3.76
2022-11-14T03:42:51.815Z,3.72
2022-11-14T03:43:51.813Z,3.80
2022-11-14T03:44:51.833Z,3.73
2022-11-14T03:45:51.791Z,3.63
2022-11-14T03:46:51.869Z,3.73
2022-11-14T03:47:51.789Z,3.78
2022-11-14T03:48:51.780Z,3.66
2022-11-14T03:49:51.792Z,3.66
2022-11-14T03:50:51.768Z,3.62
2022-11-14T03:51:51.758Z,3.73
2022-11-14T03:52:51.745Z,3.63
2022-11-14T03:53:51.776Z,3.54
2022-11-14T03:54:51.875Z,3.62
2022-11-14T03:55:51.735Z,3.66
2022-11-14T03:56:51.722Z,3.66
2022-11-14T03:57:51.741Z,3.62
2022-11-14T03:58:51.725Z,3.52
2022-11-14T03:59:51.740Z,3.37
2022-11-14T04:00:51.737Z,3.33
2022-11-14T04:01:51.705Z,3.33
2022-11-14T04:02:51.789Z,3.46
2022-11-14T04:03:51.711Z,3.54
2022-11-14T04:04:51.697Z,3.66
2022-11-14T04:05:51.689Z,3.70
2022-11-14T04:06:51.705Z,3.81
2022-11-14T04:07:51.672Z,3.78
2022-11-14T04:08:51.679Z,3.72
2022-11-14T04:09:51.692Z,3.70
2022-11-14T04:10:51.673Z,3.70
2022-11-14T04:11:51.651Z,3.70
2022-11-14T04:12:51.654Z,3.60
2022-11-14T04:13:51.673Z,3.64
2022-11-14T04:14:51.667Z,3.55
2022-11-14T04:15:51.637Z,3.52
2022-11-14T04:16:51.616Z,3.49
2022-11-14T04:17:51.636Z,3.48
2022-11-14T04:18:51.708Z,3.33
2022-11-14T04:19:51.643Z,3.44
2022-11-14T04:20:51.612Z,3.41
2022-11-14T04:21:51.598Z,3.35
2022-11-14T04:22:51.595Z,3.32
2022-11-14T04:23:51.619Z,3.25
2022-11-14T04:24:51.601Z,3.17
2022-11-14T04:25:51.586Z,3.29
2022-11-14T04:26:51.587Z,3.32
2022-11-14T04:27:51.581Z,3.36
2022-11-14T04:28:51.575Z,3.59
2022-11-14T04:29:51.566Z,3.51
2022-11-14T04:30:51.576Z,3.64
2022-11-14T04:31:51.549Z,3.76
2022-11-14T04:32:51.534Z,3.72
2022-11-14T04:33:51.562Z,3.67
2022-11-14T04:34:51.646Z,3.70
2022-11-14T04:35:51.528Z,3.69
2022-11-14T04:36:51.515Z,3.62
2022-11-14T04:37:51.532Z,3.63
2022-11-14T04:38:51.534Z,3.66
2022-11-14T04:39:51.526Z,3.66
2022-11-14T04:40:51.501Z,3.64
2022-11-14T04:41:51.494Z,3.69
2022-11-14T04:42:51.509Z,3.76
2022-11-14T04:43:51.509Z,3.78
2022-11-14T04:44:51.544Z,3.73
2022-11-14T04:45:51.492Z,3.69
2022-11-14T04:46:51.475Z,3.62
2022-11-14T04:47:51.481Z,3.62
2022-11-14T04:48:51.523Z,3.64
2022-11-14T04:49:51.457Z,3.56
2022-11-14T04:50:51.548Z,3.59
2022-11-14T04:51:52.303Z,3.56
2022-11-14T04:52:51.452Z,3.60
2022-11-14T04:53:51.454Z,3.64
2022-11-14T04:54:51.476Z,3.64
2022-11-14T04:55:51.445Z,3.82
2022-11-14T04:56:51.420Z,3.85
2022-11-14T04:57:51.438Z,3.81
2022-11-14T04:58:51.421Z,3.76
2022-11-14T04:59:51.758Z,3.81
2022-11-14T05:00:51.392Z,3.85
2022-11-14T05:01:51.486Z,3.85
2022-11-14T05:02:51.386Z,3.87
2022-11-14T05:03:51.406Z,3.88
2022-11-14T05:04:52.501Z,3.84
2022-11-14T05:05:51.376Z,3.92
2022-11-14T05:06:51.473Z,3.81
2022-11-14T05:07:51.424Z,3.81
2022-11-14T05:08:51.343Z,3.87
2022-11-14T05:09:51.347Z,3.85
2022-11-14T05:10:51.460Z,3.88
2022-11-14T05:11:51.345Z,3.87
2022-11-14T05:12:51.346Z,3.87
2022-11-14T05:13:51.340Z,3.81
2022-11-14T05:14:51.359Z,3.90
2022-11-14T05:15:51.439Z,3.84
2022-11-14T05:16:51.333Z,3.85
2022-11-14T05:17:51.321Z,3.76
2022-11-14T05:18:51.305Z,3.81
2022-11-14T05:19:51.327Z,3.70
2022-11-14T05:20:51.292Z,3.73
2022-11-14T05:21:51.350Z,3.73
2022-11-14T05:22:51.303Z,3.54
2022-11-14T05:23:51.282Z,3.52
2022-11-14T05:24:51.284Z,3.56
2022-11-14T05:25:54.787Z,3.52
2022-11-14T05:26:53.392Z,3.62
2022-11-14T05:27:51.311Z,3.37
2022-11-14T05:28:51.256Z,3.46
2022-11-14T05:29:51.249Z,3.41
2022-11-14T05:30:51.248Z,3.41
2022-11-14T05:31:51.230Z,3.35
2022-11-14T05:32:51.267Z,3.37
2022-11-14T05:33:51.254Z,3.30
2022-11-14T05:34:51.215Z,3.22
2022-11-14T05:35:51.238Z,3.20
2022-11-14T05:36:51.258Z,3.22
2022-11-14T05:37:52.968Z,3.11
2022-11-14T05:38:51.201Z,3.17
2022-11-14T05:39:51.190Z,3.07
2022-11-14T05:40:51.180Z,3.09
2022-11-14T05:41:51.188Z,3.09
2022-11-14T05:42:51.197Z,3.08
2022-11-14T05:43:51.213Z,3.08
2022-11-14T05:44:51.162Z,3.12
2022-11-14T05:45:52.156Z,3.18
2022-11-14T05:46:51.183Z,3.25
2022-11-14T05:47:51.159Z,3.07
2022-11-14T05:48:51.302Z,3.05
2022-11-14T05:49:51.150Z,3.09
2022-11-14T05:50:51.133Z,3.14
2022-11-14T05:51:51.142Z,3.08
2022-11-14T05:52:51.135Z,3.04
2022-11-14T05:53:51.112Z,2.97
2022-11-14T05:54:51.141Z,3.04
2022-11-14T05:55:51.110Z,3.05
2022-11-14T05:56:51.103Z,3.08
2022-11-14T05:57:51.102Z,3.14
2022-11-14T05:58:51.090Z,3.09
2022-11-14T05:59:51.097Z,3.11
2022-11-14T06:00:54.303Z,3.12
2022-11-14T06:01:51.107Z,3.17
2022-11-14T06:02:51.087Z,3.14
2022-11-14T06:03:51.077Z,3.08
2022-11-14T06:04:51.072Z,3.00
2022-11-14T06:05:51.271Z,3.02
2022-11-14T06:06:51.130Z,2.99
2022-11-14T06:07:51.055Z,3.02
2022-11-14T06:08:51.045Z,2.96
2022-11-14T06:09:51.056Z,2.78
2022-11-14T06:10:51.062Z,2.99
2022-11-14T06:11:51.019Z,2.78
2022-11-14T06:12:51.034Z,2.90
2022-11-14T06:13:51.042Z,2.86
2022-11-14T06:14:51.005Z,2.87
2022-11-14T06:15:51.010Z,2.89
2022-11-14T06:16:51.816Z,2.78
2022-11-14T06:17:50.992Z,2.76
2022-11-14T06:18:51.001Z,2.81
2022-11-14T06:19:50.986Z,2.73
2022-11-14T06:20:50.984Z,2.72
2022-11-14T06:21:51.070Z,2.82
2022-11-14T06:22:50.955Z,2.63
2022-11-14T06:23:51.730Z,2.73
2022-11-14T06:24:50.935Z,2.76
2022-11-14T06:25:50.990Z,2.81
2022-11-14T06:26:50.960Z,2.76
2022-11-14T06:27:50.970Z,2.79
2022-11-14T06:28:50.946Z,2.79
2022-11-14T06:29:50.951Z,2.73
2022-11-14T06:30:50.969Z,2.68
2022-11-14T06:31:50.918Z,2.71
2022-11-14T06:32:51.957Z,2.69
2022-11-14T06:33:50.908Z,2.75
2022-11-14T06:34:50.887Z,2.75
2022-11-14T06:35:50.926Z,2.75
2022-11-14T06:36:50.907Z,2.84
2022-11-14T06:37:50.896Z,2.82
2022-11-14T06:38:50.897Z,2.78
2022-11-14T06:39:50.873Z,2.68
2022-11-14T06:40:51.865Z,2.82
2022-11-14T06:41:50.865Z,2.81
2022-11-14T06:42:50.879Z,2.76
2022-11-14T06:43:50.872Z,2.75
2022-11-14T06:44:50.850Z,2.90
2022-11-14T06:45:50.890Z,2.94
2022-11-14T06:46:50.839Z,2.90
2022-11-14T06:47:50.851Z,2.86
2022-11-14T06:48:50.830Z,3.02
2022-11-14T06:49:50.812Z,2.97
2022-11-14T06:50:50.817Z,3.04
2022-11-14T06:51:50.816Z,2.84
2022-11-14T06:52:51.612Z,3.04
2022-11-14T06:53:50.832Z,2.96
2022-11-14T06:54:50.804Z,2.97
2022-11-14T06:55:51.732Z,3.05
2022-11-14T06:56:50.885Z,2.96
2022-11-14T06:57:50.781Z,3.02
2022-11-14T06:58:50.802Z,2.96
2022-11-14T06:59:50.777Z,2.87
2022-11-14T07:00:50.753Z,2.93
2022-11-14T07:01:50.768Z,2.90
2022-11-14T07:02:50.796Z,2.96
2022-11-14T07:03:51.770Z,2.94
2022-11-14T07:04:50.732Z,3.07
2022-11-14T07:05:50.760Z,3.02
2022-11-14T07:06:50.792Z,3.07
2022-11-14T07:07:50.742Z,3.05
2022-11-14T07:08:50.736Z,2.97
2022-11-14T07:09:50.725Z,3.04
2022-11-14T07:10:50.721Z,3.00
2022-11-14T07:11:50.789Z,3.14
2022-11-14T07:12:50.711Z,3.12
2022-11-14T07:13:50.713Z,3.05
2022-11-14T07:14:50.715Z,3.05
2022-11-14T07:15:50.690Z,2.94
2022-11-14T07:16:50.675Z,2.97
2022-11-14T07:17:50.685Z,2.90
2022-11-14T07:18:50.677Z,2.79
2022-11-14T07:19:50.683Z,2.86
2022-11-14T07:20:51.185Z,2.86
2022-11-14T07:21:50.658Z,2.99
2022-11-14T07:22:50.654Z,2.97
2022-11-14T07:23:50.649Z,3.04
2022-11-14T07:24:50.647Z,3.11
2022-11-14T07:25:50.644Z,3.15
2022-11-14T07:26:51.236Z,3.05
2022-11-14T07:27:50.615Z,3.20
2022-11-14T07:28:53.622Z,3.09
2022-11-14T07:29:51.629Z,3.11
2022-11-14T07:30:50.597Z,3.18
2022-11-14T07:31:50.626Z,3.17
2022-11-14T07:32:50.592Z,3.25
2022-11-14T07:33:50.621Z,3.18
2022-11-14T07:34:50.617Z,3.22
2022-11-14T07:35:50.601Z,3.20
2022-11-14T07:36:50.593Z,3.20
2022-11-14T07:37:50.635Z,3.29
2022-11-14T07:38:50.618Z,3.42
2022-11-14T07:39:50.731Z,3.63
2022-11-14T07:40:52.444Z,3.80
2022-11-14T07:41:50.643Z,3.80
2022-11-14T07:42:50.551Z,3.84
2022-11-14T07:43:50.561Z,3.85
2022-11-14T07:44:50.599Z,3.91
2022-11-14T07:45:50.571Z,3.88
2022-11-14T07:46:50.525Z,3.85
2022-11-14T07:47:50.552Z,3.91
2022-11-14T07:48:50.622Z,4.05
2022-11-14T07:49:51.260Z,4.24
2022-11-14T07:50:50.526Z,4.21
2022-11-14T07:51:50.502Z,4.34
2022-11-14T07:52:50.551Z,4.59
2022-11-14T07:53:50.517Z,4.91
2022-11-14T07:54:50.497Z,5.36
2022-11-14T07:55:50.475Z,5.77
2022-11-14T07:56:50.488Z,6.25
2022-11-14T07:57:50.627Z,6.79
2022-11-14T07:58:50.479Z,7.03
2022-11-14T07:59:50.450Z,7.18
2022-11-14T08:00:50.502Z,7.39
2022-11-14T08:01:50.461Z,7.55
2022-11-14T08:02:50.436Z,7.95
2022-11-14T08:03:50.450Z,8.14
2022-11-14T08:04:50.454Z,8.78
2022-11-14T08:05:50.447Z,8.99
2022-11-14T08:06:50.471Z,9.30
2022-11-14T08:07:50.391Z,9.70
2022-11-14T08:08:50.451Z,10.06
2022-11-14T08:09:50.396Z,10.39
2022-11-14T08:10:50.387Z,10.65
2022-11-14T08:11:50.383Z,10.65
2022-11-14T08:13:10.791Z,10.34
2022-11-14T08:13:53.182Z,10.30
2022-11-14T08:14:50.362Z,10.24
2022-11-14T08:15:50.333Z,10.14
2022-11-14T08:16:50.337Z,10.41
2022-11-14T08:17:50.330Z,10.68
2022-11-14T08:18:50.405Z,10.80
2022-11-14T08:19:50.436Z,11.00
2022-11-14T08:20:50.392Z,11.05
2022-11-14T08:21:50.313Z,11.03
2022-11-14T08:22:50.305Z,11.19
2022-11-14T08:23:50.282Z,11.41
2022-11-14T08:24:50.529Z,11.69
2022-11-14T08:25:50.292Z,11.99
2022-11-14T08:26:50.281Z,12.80
2022-11-14T08:27:50.257Z,13.55
2022-11-14T08:28:50.273Z,14.01
2022-11-14T08:29:50.258Z,14.01
2022-11-14T08:30:50.282Z,14.59
2022-11-14T08:31:50.245Z,15.07
2022-11-14T08:32:50.861Z,14.99
2022-11-14T08:33:50.222Z,14.69
2022-11-14T08:34:50.237Z,15.14
2022-11-14T08:35:50.325Z,15.26
2022-11-14T08:36:50.220Z,15.25
2022-11-14T08:37:50.220Z,15.72
2022-11-14T08:38:51.656Z,15.70
2022-11-14T08:39:51.209Z,15.83
2022-11-14T08:40:50.210Z,15.77
2022-11-14T08:41:50.220Z,15.43
2022-11-14T08:42:50.187Z,14.79
2022-11-14T08:43:50.173Z,14.37
2022-11-14T08:44:52.137Z,14.11
2022-11-14T08:45:51.165Z,13.90
2022-11-14T08:46:50.179Z,14.03
2022-11-14T08:47:50.767Z,14.23
2022-11-14T08:48:50.144Z,14.53
2022-11-14T08:49:50.762Z,15.04
2022-11-14T08:50:50.230Z,15.14
2022-11-14T08:51:50.145Z,15.30
2022-11-14T08:52:50.155Z,15.58
2022-11-14T08:53:50.109Z,15.77
2022-11-14T08:54:50.095Z,15.93
2022-11-14T08:55:50.112Z,15.93
2022-11-14T08:56:50.114Z,15.95
2022-11-14T08:57:50.207Z,16.34
2022-11-14T08:58:50.096Z,16.58
2022-11-14T08:59:50.061Z,16.90
2022-11-14T09:00:50.074Z,17.17
2022-11-14T09:01:51.080Z,17.54
2022-11-14T09:02:50.118Z,17.78
2022-11-14T09:03:52.222Z,17.83
2022-11-14T09:04:50.110Z,17.97
2022-11-14T09:05:50.045Z,18.13
2022-11-14T09:06:50.106Z,18.52
2022-11-14T09:07:50.042Z,18.28
2022-11-14T09:08:50.147Z,18.56
2022-11-14T09:09:50.030Z,19.13
2022-11-14T09:10:50.014Z,19.53
2022-11-14T09:11:50.010Z,19.96
2022-11-14T09:12:50.012Z,20.46
2022-11-14T09:13:50.004Z,20.60
2022-11-14T09:14:50.065Z,20.00
2022-11-14T09:15:50.017Z,19.68
2022-11-14T09:16:50.005Z,19.45
2022-11-14T09:17:49.985Z,19.12
2022-11-14T09:18:49.992Z,18.96
2022-11-14T09:19:49.986Z,18.58
2022-11-14T09:20:49.947Z,18.96
2022-11-14T09:21:49.958Z,18.91
2022-11-14T09:22:49.975Z,19.49
2022-11-14T09:23:49.937Z,19.77
2022-11-14T09:24:49.953Z,19.94
2022-11-14T09:25:50.039Z,20.26
2022-11-14T09:26:55.246Z,19.60
2022-11-14T09:27:50.909Z,18.85
2022-11-14T09:28:49.915Z,18.13
2022-11-14T09:29:49.903Z,17.83
2022-11-14T09:30:49.928Z,17.69
2022-11-14T09:31:49.907Z,17.53
2022-11-14T09:32:49.903Z,17.71
2022-11-14T09:33:49.883Z,18.08
2022-11-14T09:34:49.895Z,18.41
2022-11-14T09:35:49.864Z,18.71
2022-11-14T09:36:49.993Z,18.98
2022-11-14T09:37:49.862Z,19.31
2022-11-14T09:38:49.864Z,19.75
2022-11-14T09:39:49.848Z,20.18
2022-11-14T09:40:50.531Z,20.90
2022-11-14T09:41:49.869Z,20.75
2022-11-14T09:42:49.824Z,20.95
2022-11-14T09:43:49.834Z,20.93
2022-11-14T09:44:49.833Z,20.79
2022-11-14T09:45:49.831Z,20.90
2022-11-14T09:46:49.822Z,20.75
2022-11-14T09:47:50.142Z,21.14
2022-11-14T09:48:49.805Z,22.04
2022-11-14T09:49:49.784Z,22.41
2022-11-14T09:50:49.831Z,22.51
2022-11-14T09:51:49.789Z,22.93
2022-11-14T09:52:49.872Z,23.01
2022-11-14T09:53:49.783Z,22.67
2022-11-14T09:54:49.782Z,22.74
2022-11-14T09:55:49.763Z,22.76
2022-11-14T09:56:49.754Z,23.07
2022-11-14T09:57:49.753Z,22.98
2022-11-14T09:58:49.795Z,22.74
2022-11-14T09:59:49.720Z,22.28
2022-11-14T10:00:49.728Z,21.67
2022-11-14T10:01:49.780Z,21.35
2022-11-14T10:02:49.730Z,21.16
2022-11-14T10:03:49.885Z,21.25
2022-11-14T10:04:49.715Z,21.35
2022-11-14T10:05:49.735Z,20.77
2022-11-14T10:06:49.735Z,20.44
2022-11-14T10:07:49.694Z,20.55
2022-11-14T10:08:49.691Z,20.71
2022-11-14T10:09:49.717Z,20.49
2022-11-14T10:10:49.672Z,19.56
2022-11-14T10:11:49.675Z,17.86
2022-11-14T10:12:49.726Z,17.94
2022-11-14T10:13:49.686Z,19.17
2022-11-14T10:14:49.668Z,19.90
2022-11-14T10:15:49.647Z,20.30
2022-11-14T10:16:49.678Z,20.64
2022-11-14T10:17:49.667Z,21.20
2022-11-14T10:18:49.660Z,21.56
2022-11-14T10:19:49.666Z,21.74
2022-11-14T10:20:49.750Z,22.11
2022-11-14T10:21:49.614Z,22.27
2022-11-14T10:22:49.633Z,21.37
2022-11-14T10:23:49.591Z,21.40
2022-11-14T10:24:49.611Z,21.88
2022-11-14T10:25:49.637Z,22.52
2022-11-14T10:26:49.611Z,22.70
2022-11-14T10:27:55.030Z,22.99
2022-11-14T10:28:49.584Z,23.48
2022-11-14T10:29:49.581Z,23.29
2022-11-14T10:30:49.571Z,23.07
2022-11-14T10:31:49.682Z,23.21
2022-11-14T10:32:49.565Z,23.42
2022-11-14T10:33:49.548Z,23.29
2022-11-14T10:34:49.569Z,23.69
2022-11-14T10:35:49.544Z,22.58
2022-11-14T10:36:49.679Z,21.85
2022-11-14T10:37:49.577Z,21.40
2022-11-14T10:38:49.527Z,20.97
2022-11-14T10:39:49.527Z,21.04
2022-11-14T10:40:49.538Z,21.20
2022-11-14T10:41:57.997Z,21.28
2022-11-14T10:42:51.765Z,21.08
2022-11-14T10:43:49.503Z,20.09
2022-11-14T10:44:49.509Z,19.84
2022-11-14T10:45:49.493Z,19.70
2022-11-14T10:46:50.342Z,19.81
2022-11-14T10:47:49.519Z,20.44
2022-11-14T10:48:49.748Z,21.29
2022-11-14T10:49:49.519Z,21.34
2022-11-14T10:50:49.482Z,21.26
2022-11-14T10:51:49.453Z,20.89
2022-11-14T10:52:49.495Z,20.25
2022-11-14T10:53:49.513Z,20.34
2022-11-14T10:54:55.076Z,20.56
2022-11-14T10:56:03.592Z,19.47
2022-11-14T10:56:51.475Z,18.63
2022-11-14T10:57:49.448Z,17.91
2022-11-14T10:58:50.117Z,17.84
2022-11-14T10:59:50.498Z,17.88
2022-11-14T11:00:49.485Z,17.87
2022-11-14T11:01:49.436Z,17.04
2022-11-14T11:02:49.416Z,17.17
2022-11-14T11:03:49.456Z,17.24
2022-11-14T11:04:49.449Z,16.49
2022-11-14T11:05:49.432Z,15.98
2022-11-14T11:06:49.460Z,15.99
2022-11-14T11:07:49.463Z,16.28
2022-11-14T11:08:49.722Z,16.24
2022-11-14T11:09:49.443Z,16.25
2022-11-14T11:10:49.423Z,16.58
2022-11-14T11:11:49.912Z,16.18
2022-11-14T11:12:49.390Z,16.57
2022-11-14T11:13:49.351Z,16.18
2022-11-14T11:14:49.348Z,16.58
2022-11-14T11:15:49.384Z,17.07
2022-11-14T11:16:49.362Z,17.24
2022-11-14T11:17:49.318Z,16.33
2022-11-14T11:18:50.835Z,16.32
2022-11-14T11:19:50.360Z,16.80
2022-11-14T11:20:49.333Z,16.70
2022-11-14T11:21:49.416Z,16.57
2022-11-14T11:22:49.306Z,16.58
2022-11-14T11:23:49.313Z,17.45
2022-11-14T11:24:49.283Z,18.39
2022-11-14T11:25:49.332Z,17.90
2022-11-14T11:26:49.285Z,17.28
2022-11-14T11:27:49.279Z,16.87
2022-11-14T11:28:49.283Z,16.99
2022-11-14T11:29:49.257Z,17.06
2022-11-14T11:30:54.287Z,17.12
2022-11-14T11:31:51.268Z,17.41
2022-11-14T11:32:49.275Z,17.50
2022-11-14T11:33:49.241Z,18.03
2022-11-14T11:34:49.271Z,18.54
2022-11-14T11:35:49.223Z,18.78
2022-11-14T11:36:49.326Z,18.21
2022-11-14T11:37:49.211Z,17.56
2022-11-14T11:38:49.234Z,16.92
2022-11-14T11:39:49.211Z,17.53
2022-11-14T11:40:49.209Z,18.11
2022-11-14T11:43:36.668Z,17.13
2022-11-14T11:43:56.556Z,16.97
2022-11-14T11:44:51.215Z,16.62
2022-11-14T11:45:49.181Z,16.83
2022-11-14T11:46:49.182Z,16.97
2022-11-14T11:47:49.175Z,16.65
2022-11-14T11:48:49.177Z,16.17
2022-11-14T11:49:53.790Z,16.67
2022-11-14T11:50:51.159Z,17.72
2022-11-14T11:51:49.220Z,18.17
2022-11-14T11:52:49.156Z,18.45
2022-11-14T11:53:49.121Z,18.91
2022-11-14T11:54:49.147Z,19.44
2022-11-14T11:55:49.128Z,20.11
2022-11-14T11:56:49.107Z,20.14
2022-11-14T11:57:49.114Z,20.44
2022-11-14T11:58:49.426Z,20.75
2022-11-14T11:59:49.122Z,21.01
2022-11-14T12:00:49.087Z,20.77
2022-11-14T12:01:49.145Z,21.26
2022-11-14T12:02:50.296Z,21.66
2022-11-14T12:03:49.211Z,22.11
2022-11-14T12:04:49.095Z,22.37
2022-11-14T12:05:49.106Z,22.06
2022-11-14T12:06:49.127Z,21.77
2022-11-14T12:07:49.088Z,20.95
2022-11-14T12:08:49.063Z,19.99
2022-11-14T12:10:09.816Z,19.34
2022-11-14T12:10:50.829Z,19.04
2022-11-14T12:11:49.045Z,18.52
2022-11-14T12:12:49.019Z,18.67
2022-11-14T12:13:49.055Z,18.82
2022-11-14T12:14:49.063Z,19.53
2022-11-14T12:15:49.083Z,20.12
2022-11-14T12:16:49.036Z,20.55
2022-11-14T12:17:49.019Z,20.41
2022-11-14T12:18:49.004Z,20.41
2022-11-14T12:19:49.031Z,20.14
2022-11-14T12:20:49.049Z,19.74
2022-11-14T12:21:51.051Z,19.42
2022-11-14T12:22:48.994Z,18.31
2022-11-14T12:23:48.984Z,18.54
2022-11-14T12:24:48.999Z,18.96
2022-11-14T12:25:48.977Z,19.72
2022-11-14T12:26:48.992Z,20.27
2022-11-14T12:27:49.029Z,20.75
2022-11-14T12:28:48.957Z,20.93
2022-11-14T12:29:48.954Z,21.01
2022-11-14T12:30:49.080Z,20.95
2022-11-14T12:31:48.915Z,20.83
2022-11-14T12:32:48.938Z,20.89
2022-11-14T12:33:48.923Z,21.14
2022-11-14T12:34:48.957Z,21.14
2022-11-14T12:35:49.036Z,19.96
2022-11-14T12:36:48.919Z,19.23
2022-11-14T12:37:54.279Z,19.37
2022-11-14T12:38:49.890Z,19.70
2022-11-14T12:39:48.889Z,19.24
2022-11-14T12:40:48.912Z,18.09
2022-11-14T12:41:48.910Z,16.83
2022-11-14T12:42:48.890Z,16.13
2022-11-14T12:43:48.949Z,15.44
2022-11-14T12:44:48.909Z,14.58
2022-11-14T12:45:48.860Z,14.66
2022-11-14T12:46:49.038Z,14.71
2022-11-14T12:47:48.878Z,14.82
2022-11-14T12:48:48.938Z,15.90
2022-11-14T12:49:48.869Z,16.16
2022-11-14T12:50:48.878Z,15.59
2022-11-14T12:51:48.835Z,15.62
2022-11-14T12:52:48.993Z,16.28
2022-11-14T12:53:48.857Z,16.82
2022-11-14T12:54:48.871Z,17.65
2022-11-14T12:55:48.827Z,18.30
2022-11-14T12:56:53.818Z,18.81
2022-11-14T12:57:49.876Z,18.86
2022-11-14T12:58:48.837Z,18.82
2022-11-14T12:59:48.801Z,19.07
2022-11-14T13:00:48.813Z,19.38
2022-11-14T13:01:48.846Z,19.54
2022-11-14T13:02:48.781Z,19.74
2022-11-14T13:03:48.869Z,19.99
2022-11-14T13:04:48.762Z,20.14
2022-11-14T13:05:48.812Z,19.90
2022-11-14T13:06:48.782Z,20.18
2022-11-14T13:07:48.769Z,20.46
2022-11-14T13:08:48.791Z,20.32
2022-11-14T13:09:48.752Z,20.41
2022-11-14T13:10:48.727Z,20.42